Time;durP1;ratioP1;P1;durP2;ratioP2;P2;SDS_P1;SDS_P2;PMS_P1;PMS_P2;Temp;Humidity;BMP_temperature;BMP_pressure;BME280_temperature;BME280_humidity;BME280_pressure;Samples;Min_cycle;Max_cycle;Signal;HPM_P1;HPM_P2
2023/07/05 00:02:33;;;;;;;2.42;0.70;;;17.80;99.90;;;;;;5025046;23;20159;-96
2023/07/05 00:04:54;;;;;;;3.47;0.80;;;17.60;99.90;;;;;;4981706;23;20174;-96
2023/07/05 00:06:57;;;;;;;3.50;1.00;;;17.50;99.90;;;;;;5023422;23;20158;-96
2023/07/05 00:09:27;;;;;;;1.45;0.70;;;17.20;99.90;;;;;;4998666;23;20199;-96
2023/07/05 00:11:47;;;;;;;1.67;0.80;;;17.10;99.90;;;;;;4998047;23;20166;-93
2023/07/05 00:14:08;;;;;;;1.77;0.73;;;16.90;99.90;;;;;;4998407;23;20624;-95
2023/07/05 00:16:12;;;;;;;4.50;0.73;;;16.90;99.90;;;;;;4997567;23;20263;-96
2023/07/05 00:18:13;;;;;;;3.60;0.75;;;16.80;99.90;;;;;;5006401;23;20236;-95
2023/07/05 00:21:03;;;;;;;4.70;0.82;;;16.80;99.90;;;;;;5062807;23;20177;-96
2023/07/05 00:24:13;;;;;;;2.50;0.88;;;16.80;99.90;;;;;;5048628;23;20168;-96
2023/07/05 00:26:16;;;;;;;2.05;0.80;;;16.70;99.90;;;;;;5025862;23;20170;-95
2023/07/05 00:29:37;;;;;;;;;;;;;;;;;;;;;
2023/07/05 00:32:11;;;;;;;1.83;0.70;;;16.80;99.90;;;;;;4998320;23;20219;-96
2023/07/05 00:35:11;;;;;;;2.05;0.77;;;16.60;99.90;;;;;;4997823;23;20179;-96
2023/07/05 00:45:12;;;;;;;1.55;0.90;;;16.40;99.90;;;;;;4817612;24;20169;-96
2023/07/05 00:47:28;;;;;;;3.50;1.25;;;16.20;99.90;;;;;;4734242;25;20186;-95
2023/07/05 00:49:59;;;;;;;4.25;1.70;;;16.20;99.90;;;;;;4759403;24;20249;-93
2023/07/05 00:52:11;;;;;;;3.92;1.67;;;16.10;99.90;;;;;;4753663;25;20163;-96
2023/07/05 00:54:14;;;;;;;4.35;1.58;;;16.00;99.90;;;;;;4765852;24;20547;-93
2023/07/05 00:56:28;;;;;;;6.43;1.95;;;15.80;99.90;;;;;;4886672;24;20163;-93
2023/07/05 00:58:29;;;;;;;5.93;2.17;;;15.80;99.90;;;;;;4890133;24;20268;-95
2023/07/05 01:00:33;;;;;;;4.18;1.95;;;15.60;99.90;;;;;;4929351;24;20734;-93
2023/07/05 01:02:53;;;;;;;4.85;2.38;;;15.60;99.90;;;;;;5009392;23;20159;-94
2023/07/05 01:04:54;;;;;;;5.97;1.98;;;15.60;99.90;;;;;;5021967;23;20198;-93
2023/07/05 01:06:58;;;;;;;6.18;2.30;;;15.50;99.90;;;;;;5001777;23;20152;-93
2023/07/05 01:08:59;;;;;;;4.57;1.92;;;15.60;99.90;;;;;;5021837;23;20198;-92
2023/07/05 01:11:51;;;;;;;5.35;2.28;;;15.50;99.90;;;;;;5047467;23;20158;-95
2023/07/05 01:14:32;;;;;;;5.50;2.53;;;15.50;99.90;;;;;;5003065;23;20160;-96
2023/07/05 01:17:02;;;;;;;6.28;2.72;;;15.50;99.90;;;;;;4997971;23;20167;-96
2023/07/05 01:19:37;;;;;;;12.80;2.53;;;15.50;99.90;;;;;;5046536;23;20640;-93
2023/07/05 01:22:07;;;;;;;6.32;2.85;;;15.50;99.90;;;;;;5006201;23;20211;-96
2023/07/05 01:24:50;;;;;;;8.27;2.50;;;15.60;99.90;;;;;;5046149;23;20691;-96
2023/07/05 01:34:04;;;;;;;7.95;3.00;;;15.40;99.90;;;;;;5122532;23;20147;-92
2023/07/05 01:36:09;;;;;;;5.03;2.50;;;15.30;99.90;;;;;;5096353;23;20269;-95
2023/07/05 01:38:09;;;;;;;6.47;2.60;;;15.30;99.90;;;;;;5072050;23;20170;-92
2023/07/05 01:40:25;;;;;;;6.97;2.72;;;15.40;99.90;;;;;;5070920;23;20462;-94
2023/07/05 01:42:48;;;;;;;7.38;2.85;;;15.50;99.90;;;;;;5099702;23;20161;-96
2023/07/05 01:44:49;;;;;;;6.15;2.78;;;15.60;99.90;;;;;;5080623;23;20133;-91
2023/07/05 01:47:16;;;;;;;5.88;2.70;;;15.50;99.90;;;;;;5088713;23;20145;-94
2023/07/05 01:50:24;;;;;;;10.48;2.90;;;15.60;99.90;;;;;;5121241;23;20202;-94
2023/07/05 01:52:47;;;;;;;5.18;2.58;;;15.50;99.90;;;;;;4951146;23;20703;-92
2023/07/05 01:55:02;;;;;;;10.35;3.17;;;15.50;99.90;;;;;;4973596;23;20195;-92
2023/07/05 01:57:34;;;;;;;4.78;3.10;;;15.50;99.90;;;;;;4976970;23;20242;-92
2023/07/05 01:59:45;;;;;;;11.75;2.80;;;15.40;99.90;;;;;;4951855;24;20168;-93
2023/07/05 02:01:47;;;;;;;8.60;3.30;;;15.40;99.90;;;;;;4974965;23;20297;-92
2023/07/05 02:03:50;;;;;;;8.35;3.20;;;15.50;99.90;;;;;;4997726;23;20157;-96
2023/07/05 02:05:57;;;;;;;8.82;3.05;;;15.50;99.90;;;;;;5074015;23;20236;-93
2023/07/05 02:08:21;;;;;;;7.90;3.20;;;15.40;99.90;;;;;;5095631;23;20181;-95
2023/07/05 02:10:23;;;;;;;9.88;3.45;;;15.50;99.90;;;;;;5069916;23;20169;-93
2023/07/05 02:12:26;;;;;;;11.02;3.38;;;15.50;99.90;;;;;;5069447;23;20660;-92
2023/07/05 02:14:27;;;;;;;6.78;3.17;;;15.40;99.90;;;;;;5073176;23;20177;-95
2023/07/05 02:16:31;;;;;;;11.35;3.17;;;15.50;99.90;;;;;;5095180;23;20149;-94
2023/07/05 02:18:31;;;;;;;10.55;3.35;;;15.50;99.90;;;;;;5072552;23;20173;-93
2023/07/05 02:20:32;;;;;;;9.35;3.70;;;15.50;99.90;;;;;;5094482;23;20156;-94
2023/07/05 02:22:36;;;;;;;8.68;3.50;;;15.70;99.90;;;;;;5071647;23;20482;-92
2023/07/05 02:24:59;;;;;;;10.68;4.05;;;15.70;99.90;;;;;;5068988;23;20584;-95
2023/07/05 02:27:03;;;;;;;7.57;3.53;;;15.70;99.90;;;;;;5070469;23;20154;-95
2023/07/05 02:29:07;;;;;;;9.00;3.60;;;15.70;99.90;;;;;;5072791;23;20192;-96
2023/07/05 02:31:12;;;;;;;8.07;3.95;;;15.70;99.90;;;;;;5070689;23;20152;-92
2023/07/05 02:33:13;;;;;;;11.20;3.80;;;15.70;99.90;;;;;;5069729;23;20162;-92
2023/07/05 02:35:21;;;;;;;11.30;4.13;;;15.60;99.90;;;;;;5094977;23;20218;-95
2023/07/05 02:37:27;;;;;;;11.82;4.00;;;15.40;99.90;;;;;;5095809;23;20156;-93
2023/07/05 02:39:28;;;;;;;9.27;4.15;;;15.30;99.90;;;;;;5069647;23;20619;-95
2023/07/05 02:41:33;;;;;;;13.73;4.50;;;15.30;99.90;;;;;;5095764;23;20236;-92
2023/07/05 02:43:37;;;;;;;11.10;4.13;;;15.30;99.90;;;;;;5073849;23;20204;-92
2023/07/05 02:45:37;;;;;;;9.10;4.18;;;15.30;99.90;;;;;;5096419;23;20556;-96
2023/07/05 02:47:44;;;;;;;12.73;4.28;;;15.30;99.90;;;;;;5071970;23;20157;-94
2023/07/05 02:49:53;;;;;;;9.85;4.05;;;15.30;99.90;;;;;;5096865;23;20247;-92
2023/07/05 02:51:57;;;;;;;10.93;4.35;;;15.40;99.90;;;;;;5072335;23;20293;-93
2023/07/05 02:54:03;;;;;;;9.20;3.95;;;15.20;99.90;;;;;;5071561;23;20160;-95
2023/07/05 02:56:04;;;;;;;8.02;4.00;;;15.30;99.90;;;;;;5069882;23;20197;-91
2023/07/05 02:58:08;;;;;;;9.13;3.85;;;15.20;99.90;;;;;;5096182;23;20176;-96
2023/07/05 03:00:10;;;;;;;8.18;4.18;;;15.20;99.90;;;;;;5070736;23;20600;-93
2023/07/05 03:02:11;;;;;;;9.95;3.90;;;15.40;99.90;;;;;;5070309;23;20169;-94
2023/07/05 03:05:12;;;;;;;9.30;4.35;;;15.40;99.90;;;;;;5122560;23;20156;-96
2023/07/05 03:07:20;;;;;;;12.95;4.43;;;15.40;99.90;;;;;;4996628;23;20162;-95
2023/07/05 03:09:22;;;;;;;11.75;4.25;;;15.20;99.90;;;;;;4997611;23;20156;-94
2023/07/05 03:11:25;;;;;;;10.05;4.13;;;15.10;99.90;;;;;;5074371;23;20902;-95
2023/07/05 03:13:38;;;;;;;12.63;5.53;;;15.20;99.90;;;;;;5071014;23;20150;-94
2023/07/05 03:16:05;;;;;;;;;;;;;;;;;;;;;
2023/07/05 03:18:24;;;;;;;12.38;4.35;;;15.20;99.90;;;;;;5081531;23;20177;-93
2023/07/05 03:20:28;;;;;;;12.65;4.43;;;15.20;99.90;;;;;;5046473;23;20158;-95
2023/07/05 03:22:46;;;;;;;11.20;4.28;;;15.10;99.90;;;;;;5048048;23;20150;-96
2023/07/05 03:25:00;;;;;;;11.55;4.22;;;15.00;99.90;;;;;;5045812;23;20241;-94
2023/07/05 03:27:01;;;;;;;12.50;4.68;;;15.00;99.90;;;;;;5045325;23;20229;-95
2023/07/05 03:29:03;;;;;;;11.60;4.90;;;14.90;99.90;;;;;;5048602;23;20727;-95
2023/07/05 03:31:15;;;;;;;13.05;4.25;;;14.80;99.90;;;;;;5070842;23;20156;-95
2023/07/05 03:33:28;;;;;;;12.70;3.95;;;14.80;99.90;;;;;;5070300;23;20163;-93
2023/07/05 03:35:28;;;;;;;8.05;4.10;;;14.80;99.90;;;;;;5074286;23;20184;-92
2023/07/05 03:37:37;;;;;;;13.80;3.95;;;14.70;99.90;;;;;;5050194;23;20170;-96
2023/07/05 03:39:44;;;;;;;12.70;4.05;;;14.60;99.90;;;;;;5022597;23;20163;-96
2023/07/05 03:41:51;;;;;;;13.35;4.30;;;14.60;99.90;;;;;;5044074;23;20147;-93
2023/07/05 03:44:03;;;;;;;12.50;4.15;;;14.80;99.90;;;;;;5072775;23;20584;-95
2023/07/05 03:46:15;;;;;;;13.32;4.10;;;14.80;99.90;;;;;;5046280;23;20154;-96
2023/07/05 03:49:28;;;;;;;8.40;3.95;;;14.60;99.90;;;;;;5098523;23;20173;-95
2023/07/05 03:51:53;;;;;;;12.68;4.20;;;14.60;99.90;;;;;;5099545;23;20164;-94
2023/07/05 03:54:09;;;;;;;8.15;4.07;;;14.60;99.90;;;;;;5024983;23;20159;-95
2023/07/05 03:56:22;;;;;;;10.55;4.10;;;14.80;99.90;;;;;;5051577;23;20174;-96
2023/07/05 03:58:37;;;;;;;7.47;3.53;;;14.90;99.90;;;;;;5047018;23;20178;-96
2023/07/05 04:00:44;;;;;;;9.82;4.20;;;15.00;99.90;;;;;;5068746;23;20577;-96
2023/07/05 04:03:01;;;;;;;8.48;3.58;;;15.20;99.90;;;;;;5046443;23;20182;-96
2023/07/05 04:05:27;;;;;;;11.60;4.15;;;15.10;99.90;;;;;;5102475;23;20195;-94
2023/07/05 04:07:33;;;;;;;7.38;3.33;;;14.90;99.90;;;;;;5045856;23;20146;-93
2023/07/05 04:09:36;;;;;;;7.45;3.65;;;15.00;99.90;;;;;;5053276;23;20153;-94
2023/07/05 04:11:37;;;;;;;9.18;3.58;;;14.90;99.90;;;;;;5050456;23;20185;-96
2023/07/05 04:13:46;;;;;;;8.40;3.42;;;14.80;99.90;;;;;;5050357;23;20229;-94
2023/07/05 04:16:25;;;;;;;10.18;3.45;;;14.60;99.90;;;;;;5049520;23;20212;-95
2023/07/05 04:23:12;;;;;;;11.32;3.30;;;14.80;99.90;;;;;;5110114;23;20214;-96
2023/07/05 04:25:25;;;;;;;12.13;3.75;;;14.80;99.90;;;;;;5095284;23;20246;-95
2023/07/05 04:27:32;;;;;;;12.10;3.60;;;15.00;99.90;;;;;;5050136;23;20165;-94
2023/07/05 04:30:17;;;;;;;8.15;3.00;;;15.00;99.90;;;;;;5031876;23;20182;-96
2023/07/05 04:32:29;;;;;;;8.68;2.78;;;15.00;99.90;;;;;;5091212;23;20231;-95
2023/07/05 04:34:32;;;;;;;9.30;2.80;;;14.90;99.90;;;;;;5076483;23;20524;-96
2023/07/05 04:36:35;;;;;;;8.85;3.30;;;14.90;99.90;;;;;;5046764;23;20253;-95
2023/07/05 04:38:46;;;;;;;14.23;3.25;;;15.00;99.90;;;;;;5056739;23;20530;-95
2023/07/05 04:41:01;;;;;;;9.23;2.83;;;15.10;99.90;;;;;;5088707;23;20157;-94
2023/07/05 04:43:13;;;;;;;6.18;2.42;;;15.20;99.90;;;;;;5078961;23;20227;-96
2023/07/05 04:45:33;;;;;;;8.30;2.38;;;15.10;99.90;;;;;;5101378;23;20157;-95
2023/07/05 04:47:41;;;;;;;13.90;3.08;;;15.10;99.90;;;;;;5095927;23;20242;-94
2023/07/05 04:49:41;;;;;;;6.05;2.50;;;15.20;99.90;;;;;;5076534;23;20162;-93
2023/07/05 04:51:58;;;;;;;9.02;2.63;;;15.10;99.90;;;;;;5059693;23;20219;-96
2023/07/05 04:54:17;;;;;;;6.68;2.60;;;15.10;99.90;;;;;;5076285;23;20165;-96
2023/07/05 04:56:20;;;;;;;14.52;2.55;;;15.10;99.90;;;;;;5071339;23;20169;-93
2023/07/05 04:59:13;;;;;;;11.38;2.53;;;15.00;99.90;;;;;;5049839;23;20283;-96
2023/07/05 05:02:05;;;;;;;15.75;3.20;;;15.10;99.90;;;;;;5070033;23;20227;-96
2023/07/05 05:04:06;;;;;;;6.57;2.10;;;15.30;99.90;;;;;;5002012;23;20152;-89
2023/07/05 05:06:35;;;;;;;11.88;2.50;;;15.50;99.90;;;;;;4955200;24;20217;-96
2023/07/05 05:08:44;;;;;;;7.72;2.15;;;15.50;99.90;;;;;;5016459;23;20219;-96
2023/07/05 05:11:26;;;;;;;13.48;2.17;;;15.40;99.90;;;;;;5058975;23;20227;-96
2023/07/05 05:17:15;;;;;;;8.30;2.40;;;15.50;99.90;;;;;;5130653;23;20234;-96
2023/07/05 05:19:28;;;;;;;7.72;2.25;;;15.40;99.90;;;;;;5106005;23;20168;-96
2023/07/05 05:21:31;;;;;;;7.15;2.05;;;15.40;99.90;;;;;;5076102;23;20200;-96
2023/07/05 05:23:35;;;;;;;9.80;2.20;;;15.40;99.90;;;;;;5095693;23;20165;-96
2023/07/05 05:25:54;;;;;;;11.48;2.03;;;15.70;99.90;;;;;;5097731;23;20149;-95
2023/07/05 05:28:05;;;;;;;;;;;;;;;;;;;;;
2023/07/05 05:36:33;;;;;;;10.48;2.30;;;15.60;99.90;;;;;;5116160;23;20724;-96
2023/07/05 05:38:44;;;;;;;10.95;2.45;;;15.80;99.90;;;;;;5053561;23;20175;-96
2023/07/05 05:40:46;;;;;;;6.93;2.30;;;15.80;99.90;;;;;;5042424;23;20217;-93
2023/07/05 05:42:57;;;;;;;8.98;1.88;;;15.90;99.90;;;;;;5077271;23;20150;-96
2023/07/05 05:45:01;;;;;;;4.43;1.95;;;16.10;99.90;;;;;;5078459;23;20149;-96
2023/07/05 05:47:25;;;;;;;;;;;;;;;;;;;;;
2023/07/05 05:49:48;;;;;;;8.02;1.98;;;16.40;99.90;;;;;;5103948;23;20223;-96
2023/07/05 05:52:07;;;;;;;6.82;2.13;;;16.50;99.90;;;;;;5052058;23;20240;-95
2023/07/05 05:54:14;;;;;;;7.18;2.10;;;16.30;99.90;;;;;;5050945;23;20146;-95
2023/07/05 05:56:17;;;;;;;6.10;2.08;;;16.20;99.90;;;;;;5074909;23;20168;-93
2023/07/05 05:58:23;;;;;;;7.63;2.00;;;16.10;99.90;;;;;;5048758;23;20170;-96
2023/07/05 06:00:32;;;;;;;4.15;1.90;;;16.30;99.90;;;;;;5047028;23;20154;-96
2023/07/05 06:03:03;;;;;;;5.93;1.63;;;16.10;99.90;;;;;;5051790;23;20158;-96
2023/07/05 06:08:20;;;;;;;5.05;1.77;;;16.20;99.90;;;;;;5079814;23;20180;-96
2023/07/05 06:10:42;;;;;;;3.38;1.48;;;16.10;99.90;;;;;;5052988;23;20150;-96
2023/07/05 06:13:21;;;;;;;6.65;1.92;;;16.30;99.90;;;;;;5049958;23;20213;-96
2023/07/05 06:16:09;;;;;;;7.07;1.88;;;16.30;99.90;;;;;;4978386;23;20179;-95
2023/07/05 06:18:13;;;;;;;5.20;1.80;;;16.30;99.90;;;;;;4952803;24;20180;-95
2023/07/05 06:20:29;;;;;;;6.25;1.30;;;16.30;99.90;;;;;;4979702;23;20160;-96
2023/07/05 06:22:40;;;;;;;7.30;1.65;;;16.40;99.90;;;;;;4965696;23;20161;-96
2023/07/05 06:24:47;;;;;;;6.72;1.90;;;16.60;99.90;;;;;;5018504;23;20161;-93
2023/07/05 06:26:47;;;;;;;10.43;1.75;;;16.60;99.90;;;;;;5058720;23;20652;-94
2023/07/05 06:30:12;;;;;;;6.57;1.50;;;16.60;99.90;;;;;;5053348;23;20209;-96
2023/07/05 06:31:55;;;;;;;4.60;1.70;;;16.60;99.90;;;;;;5053706;23;20169;-95
2023/07/05 06:34:14;;;;;;;9.63;1.90;;;16.60;99.90;;;;;;5045110;23;20225;-95
2023/07/05 06:36:15;;;;;;;10.05;1.77;;;16.70;99.90;;;;;;5050324;23;20193;-95
2023/07/05 06:38:50;;;;;;;4.05;1.48;;;16.60;99.90;;;;;;5025788;23;20171;-96
2023/07/05 06:41:41;;;;;;;7.63;1.77;;;16.60;99.90;;;;;;5053278;23;20164;-95
2023/07/05 06:44:32;;;;;;;3.60;1.50;;;16.70;99.90;;;;;;5048489;23;20138;-96
2023/07/05 06:46:44;;;;;;;4.97;1.40;;;16.80;99.90;;;;;;5073556;23;20165;-94
2023/07/05 06:49:03;;;;;;;12.57;1.60;;;17.00;99.90;;;;;;5046246;23;20193;-96
2023/07/05 06:51:12;;;;;;;8.85;1.73;;;17.00;99.90;;;;;;5073184;23;20162;-94
2023/07/05 06:53:43;;;;;;;6.15;1.48;;;17.00;99.90;;;;;;5049223;23;20147;-96
2023/07/05 06:55:53;;;;;;;13.13;1.65;;;17.00;99.90;;;;;;5017249;23;20704;-95
2023/07/05 06:57:54;;;;;;;9.80;1.58;;;17.20;99.90;;;;;;5047960;23;20201;-89
2023/07/05 07:00:09;;;;;;;6.45;1.58;;;17.00;99.90;;;;;;5072695;23;20146;-95
2023/07/05 07:02:10;;;;;;;12.48;1.80;;;17.00;99.90;;;;;;5051831;23;20160;-90
2023/07/05 07:04:11;;;;;;;7.68;1.52;;;17.20;99.90;;;;;;5075093;23;20156;-93
2023/07/05 07:06:20;;;;;;;9.68;1.67;;;17.30;99.90;;;;;;5052712;23;20154;-96
2023/07/05 07:08:27;;;;;;;11.07;1.60;;;17.40;99.90;;;;;;5068201;23;20232;-88
2023/07/05 07:10:27;;;;;;;7.70;1.60;;;17.50;99.90;;;;;;5072309;23;20654;-93
2023/07/05 07:12:39;;;;;;;8.98;2.15;;;17.70;99.90;;;;;;5099160;23;20182;-96
2023/07/05 07:15:17;;;;;;;11.68;2.05;;;17.80;99.90;;;;;;5071854;23;20236;-95
2023/07/05 07:18:20;;;;;;;;;;;;;;;;;;;;;
2023/07/05 07:20:59;;;;;;;9.70;1.77;;;18.20;99.90;;;;;;5120906;23;20158;-96
2023/07/05 07:23:00;;;;;;;10.52;1.80;;;19.30;99.90;;;;;;5072447;23;20205;-94
2023/07/05 07:25:07;;;;;;;6.60;1.35;;;19.70;99.90;;;;;;5096817;23;20224;-96
2023/07/05 07:27:18;;;;;;;10.95;1.63;;;20.70;99.90;;;;;;5075066;23;20153;-96
2023/07/05 07:32:29;;;;;;;13.27;1.90;;;21.90;99.90;;;;;;5123866;23;20156;-95
2023/07/05 07:34:32;;;;;;;6.57;1.30;;;22.60;99.90;;;;;;5072322;23;20643;-96
2023/07/05 07:36:53;;;;;;;6.75;1.75;;;22.40;99.90;;;;;;5078042;23;20149;-93
2023/07/05 07:38:58;;;;;;;9.63;1.70;;;22.50;99.90;;;;;;5111500;23;20169;-93
2023/07/05 07:41:41;;;;;;;7.90;1.45;;;23.00;99.90;;;;;;5109120;23;20624;-96
2023/07/05 07:43:54;;;;;;;6.50;1.58;;;23.60;99.90;;;;;;5090043;23;20235;-96
2023/07/05 07:46:30;;;;;;;5.55;1.50;;;24.70;99.90;;;;;;5074349;23;20169;-95
2023/07/05 07:48:33;;;;;;;8.88;1.52;;;25.30;99.90;;;;;;5098504;23;20241;-94
2023/07/05 07:50:37;;;;;;;10.68;1.48;;;26.10;99.90;;;;;;5096495;23;20153;-95
2023/07/05 07:53:09;;;;;;;5.95;1.20;;;26.30;99.90;;;;;;5098922;23;20599;-93
2023/07/05 07:55:40;;;;;;;5.70;1.08;;;26.30;99.90;;;;;;5095205;23;20696;-96
2023/07/05 07:58:32;;;;;;;9.70;1.48;;;26.60;99.90;;;;;;4977967;23;20188;-96
2023/07/05 08:00:48;;;;;;;5.65;1.10;;;27.00;99.90;;;;;;4973967;23;20166;-91
2023/07/05 08:02:48;;;;;;;15.25;1.40;;;26.10;99.90;;;;;;5065668;23;20222;-96
2023/07/05 08:05:24;;;;;;;6.95;1.30;;;26.00;99.90;;;;;;5078220;23;20192;-96
2023/07/05 08:07:44;;;;;;;6.55;1.08;;;24.80;99.90;;;;;;5089303;23;20173;-90
2023/07/05 08:10:20;;;;;;;7.30;1.10;;;24.40;99.90;;;;;;5023736;23;20506;-94
2023/07/05 08:12:23;;;;;;;7.35;1.30;;;24.60;99.90;;;;;;5022190;23;20158;-94
2023/07/05 08:15:10;;;;;;;9.30;2.05;;;24.40;99.90;;;;;;5025787;23;20155;-94
2023/07/05 08:17:11;;;;;;;7.10;1.52;;;25.50;99.90;;;;;;5047183;23;20158;-89
2023/07/05 08:19:33;;;;;;;4.30;1.02;;;25.60;99.90;;;;;;5048975;23;20870;-91
2023/07/05 08:22:24;;;;;;;5.35;0.98;;;25.80;99.90;;;;;;5025112;23;20159;-94
2023/07/05 08:25:13;;;;;;;;;;;;;;;;;;;;;
2023/07/05 08:27:58;;;;;;;;;;;;;;;;;;;;;
2023/07/05 08:30:30;;;;;;;5.05;1.30;;;26.20;99.90;;;;;;5004129;23;20166;-95
2023/07/05 08:32:31;;;;;;;6.60;1.33;;;26.10;99.90;;;;;;5001029;23;20163;-88
2023/07/05 08:34:43;;;;;;;7.95;1.20;;;26.30;99.90;;;;;;4977243;23;20164;-95
2023/07/05 08:36:46;;;;;;;8.55;1.45;;;26.00;99.90;;;;;;5001516;23;20203;-89
2023/07/05 08:39:17;;;;;;;5.70;1.08;;;25.80;99.90;;;;;;5085430;23;20200;-96
2023/07/05 08:41:46;;;;;;;7.78;1.30;;;25.40;99.90;;;;;;5097876;23;20484;-93
2023/07/05 08:44:18;;;;;;;8.50;1.33;;;24.30;99.90;;;;;;5074884;23;20153;-95
2023/07/05 08:46:24;;;;;;;5.00;1.10;;;24.30;99.90;;;;;;5071824;23;20192;-94
2023/07/05 08:52:02;;;;;;;9.48;1.08;;;24.70;99.90;;;;;;5072669;23;20158;-96
2023/07/05 08:58:09;;;;;;;8.35;1.30;;;25.10;99.90;;;;;;4998573;23;20175;-94
2023/07/05 09:03:51;;;;;;;8.38;1.60;;;26.00;99.90;;;;;;5125062;23;20208;-96
2023/07/05 09:09:56;;;;;;;9.27;1.58;;;24.50;99.90;;;;;;5123977;23;20661;-96
2023/07/05 09:12:34;;;;;;;10.52;1.50;;;23.80;99.90;;;;;;5074759;23;20161;-96
2023/07/05 09:15:23;;;;;;;9.98;1.63;;;24.70;99.90;;;;;;5097106;23;20236;-96
2023/07/05 09:18:04;;;;;;;10.38;1.67;;;24.70;99.90;;;;;;5074889;23;20181;-95
2023/07/05 09:20:44;;;;;;;9.63;1.60;;;24.90;99.90;;;;;;5072884;23;20160;-93
2023/07/05 09:23:24;;;;;;;7.88;1.40;;;24.50;99.90;;;;;;5104005;23;20179;-95
2023/07/05 09:25:51;;;;;;;7.68;1.42;;;23.70;99.90;;;;;;5073601;23;20161;-95
2023/07/05 09:28:32;;;;;;;7.55;1.50;;;24.00;99.90;;;;;;5072918;23;20213;-95
2023/07/05 09:30:55;;;;;;;9.75;1.60;;;24.00;99.90;;;;;;5079454;23;20153;-95
2023/07/05 09:33:12;;;;;;;9.98;1.55;;;25.00;99.90;;;;;;5074916;23;20608;-96
2023/07/05 09:35:15;;;;;;;8.18;1.70;;;25.60;99.90;;;;;;5123965;23;20198;-92
2023/07/05 09:37:35;;;;;;;9.82;1.80;;;25.80;99.90;;;;;;5071547;23;20150;-95
2023/07/05 09:40:20;;;;;;;10.52;1.63;;;26.20;99.90;;;;;;5097531;23;20167;-95
2023/07/05 09:45:03;;;;;;;8.98;1.83;;;26.80;99.90;;;;;;5034071;23;20198;-91
2023/07/05 09:47:15;;;;;;;10.68;1.65;;;26.90;99.90;;;;;;5024669;23;20661;-94
2023/07/05 09:49:26;;;;;;;8.93;1.63;;;26.20;99.90;;;;;;5004914;23;20182;-95
2023/07/05 09:51:48;;;;;;;7.72;1.50;;;25.90;99.90;;;;;;4982375;23;20223;-96
2023/07/05 09:57:17;;;;;;;7.30;1.38;;;25.70;99.90;;;;;;5004497;23;20203;-91
2023/07/05 09:59:37;;;;;;;7.32;1.33;;;25.00;99.90;;;;;;5076258;23;20160;-88
2023/07/05 10:02:31;;;;;;;10.20;1.30;;;24.60;99.90;;;;;;5050317;23;20154;-95
2023/07/05 10:05:30;;;;;;;6.45;1.30;;;24.10;99.90;;;;;;5082444;23;20160;-96
2023/07/05 10:07:35;;;;;;;8.35;1.70;;;24.10;99.90;;;;;;5050779;23;20157;-95
2023/07/05 10:15:28;;;;;;;7.43;1.50;;;24.90;99.90;;;;;;4982862;23;20196;-92
2023/07/05 10:23:23;;;;;;;;;;;;;;;;;;;;;
2023/07/05 10:25:40;;;;;;;8.32;1.55;;;24.10;99.90;;;;;;5066896;23;20639;-96
2023/07/05 10:28:21;;;;;;;5.53;1.20;;;24.00;99.90;;;;;;5073234;23;20177;-96
2023/07/05 10:35:45;;;;;;;6.32;1.45;;;23.10;99.90;;;;;;5111282;23;20265;-96
2023/07/05 10:37:52;;;;;;;5.78;1.40;;;22.40;99.90;;;;;;5080076;23;20201;-95
2023/07/05 10:39:53;;;;;;;9.18;1.75;;;22.20;99.90;;;;;;5081822;23;20146;-92
2023/07/05 10:42:00;;;;;;;6.78;1.52;;;22.10;99.90;;;;;;5080482;23;20555;-95
2023/07/05 10:44:24;;;;;;;9.70;1.60;;;22.40;99.90;;;;;;5098353;23;20176;-95
2023/07/05 10:52:34;;;;;;;7.90;1.50;;;23.00;99.90;;;;;;5098669;23;20218;-94
2023/07/05 10:57:26;;;;;;;10.02;1.63;;;22.90;99.90;;;;;;5129593;23;20176;-92
2023/07/05 11:02:56;;;;;;;;;;;;;;;;;;;;;
2023/07/05 11:10:15;;;;;;;6.78;1.30;;;23.60;99.90;;;;;;5115775;23;20210;-92
2023/07/05 11:15:17;;;;;;;4.45;1.17;;;23.90;99.90;;;;;;5120936;23;20218;-92
2023/07/05 11:20:29;;;;;;;6.13;1.27;;;24.00;99.90;;;;;;5108494;23;20204;-95
2023/07/05 11:23:00;;;;;;;5.95;1.40;;;23.90;99.90;;;;;;5074069;23;20153;-95
2023/07/05 11:31:01;;;;;;;4.57;1.40;;;23.10;99.90;;;;;;5115926;23;20247;-95
2023/07/05 12:10:42;;;;;;;5.43;1.58;;;22.80;99.90;;;;;;5106496;23;20265;-94
2023/07/05 12:16:30;;;;;;;9.80;1.85;;;22.10;99.90;;;;;;5056405;23;20248;-96
2023/07/05 12:18:41;;;;;;;8.07;1.70;;;22.30;99.90;;;;;;4989695;23;20199;-95
2023/07/05 12:29:13;;;;;;;4.50;1.38;;;23.50;99.90;;;;;;5103103;23;20651;-96
2023/07/05 12:42:30;;;;;;;9.98;1.85;;;23.40;99.90;;;;;;5116193;23;20235;-90
2023/07/05 12:45:17;;;;;;;7.25;1.60;;;23.20;99.90;;;;;;5079148;23;20158;-95
2023/07/05 12:51:01;;;;;;;3.15;1.30;;;23.00;99.90;;;;;;5130515;23;20792;-96
2023/07/05 12:53:22;;;;;;;8.65;1.30;;;23.40;99.90;;;;;;5077383;23;20205;-96
2023/07/05 12:55:31;;;;;;;3.67;1.30;;;23.60;99.90;;;;;;5106011;23;20192;-96
2023/07/05 13:06:19;;;;;;;5.70;1.45;;;23.30;99.90;;;;;;5107636;23;20137;-96
2023/07/05 13:11:07;;;;;;;8.45;1.58;;;23.50;99.90;;;;;;5117735;23;20578;-96
2023/07/05 13:25:58;;;;;;;;;;;;;;;;;;;;;
2023/07/05 14:06:09;;;;;;;3.10;0.82;;;22.70;99.90;;;;;;5006505;23;20191;-96
2023/07/05 14:09:03;;;;;;;4.05;1.30;;;22.80;99.90;;;;;;5058001;23;20278;-95
2023/07/05 14:11:36;;;;;;;5.68;1.00;;;22.20;99.90;;;;;;5006086;23;20174;-96
2023/07/05 14:17:19;;;;;;;3.47;1.20;;;22.30;99.90;;;;;;5029263;23;20197;-96
2023/07/05 14:26:41;;;;;;;4.53;1.13;;;21.90;99.90;;;;;;5054262;23;20246;-96
2023/07/05 14:29:34;;;;;;;4.22;1.33;;;22.10;99.90;;;;;;5051901;23;20177;-96
2023/07/05 14:32:01;;;;;;;3.03;1.40;;;22.40;99.90;;;;;;5053813;23;20259;-96
2023/07/05 14:56:01;;;;;;;7.32;1.85;;;22.30;99.90;;;;;;4954108;24;20192;-93
2023/07/05 15:00:35;;;;;;;5.15;1.20;;;22.50;99.90;;;;;;5150825;23;20659;-96
2023/07/05 15:02:49;;;;;;;5.00;1.23;;;22.10;99.90;;;;;;5121542;23;20152;-95
2023/07/05 15:08:05;;;;;;;4.50;1.20;;;22.10;99.90;;;;;;5124560;23;20286;-94
2023/07/05 15:10:40;;;;;;;4.10;1.35;;;21.60;99.90;;;;;;5101138;23;20650;-96
2023/07/05 15:12:52;;;;;;;9.07;1.10;;;21.00;99.90;;;;;;5096665;23;20159;-93
2023/07/05 15:33:58;;;;;;;6.40;1.40;;;22.70;99.90;;;;;;5097920;23;20271;-93
2023/07/05 15:38:02;;;;;;;5.72;1.70;;;22.80;99.90;;;;;;5121669;23;20250;-88
2023/07/05 15:40:04;;;;;;;6.97;1.67;;;22.80;99.90;;;;;;5093731;23;20179;-89
2023/07/05 15:42:08;;;;;;;5.03;1.55;;;23.00;99.90;;;;;;5071723;23;20601;-93
2023/07/05 15:44:29;;;;;;;5.70;1.83;;;22.90;99.90;;;;;;5110195;23;20160;-95
2023/07/05 15:49:33;;;;;;;5.68;1.70;;;22.80;99.90;;;;;;4993376;23;20194;-96
2023/07/05 15:51:52;;;;;;;7.18;1.77;;;22.80;99.90;;;;;;5090646;23;20157;-94
2023/07/05 15:53:58;;;;;;;7.60;1.42;;;23.10;99.90;;;;;;5070093;23;20153;-96
2023/07/05 15:56:28;;;;;;;6.38;1.20;;;23.20;99.90;;;;;;5070987;23;20199;-94
2023/07/05 15:58:39;;;;;;;5.68;1.20;;;23.20;99.90;;;;;;5071566;23;20172;-96
2023/07/05 16:01:32;;;;;;;3.65;1.25;;;22.90;99.90;;;;;;5072720;23;20169;-96
2023/07/05 16:05:00;;;;;;;7.70;1.52;;;23.00;99.90;;;;;;5072591;23;20607;-96
2023/07/05 16:12:10;;;;;;;7.45;1.35;;;23.10;99.90;;;;;;5115859;23;20678;-91
2023/07/05 16:15:09;;;;;;;;;;;;;;;;;;;;;
2023/07/05 16:18:19;;;;;;;3.13;0.90;;;23.20;99.90;;;;;;5071880;23;20176;-96
2023/07/05 16:21:31;;;;;;;5.22;1.40;;;23.00;99.90;;;;;;4954963;24;20188;-96
2023/07/05 16:28:16;;;;;;;4.78;1.42;;;22.90;99.90;;;;;;4786807;24;20173;-96
2023/07/05 16:34:03;;;;;;;3.60;0.98;;;22.80;99.90;;;;;;4798062;24;20212;-94
2023/07/05 16:36:12;;;;;;;8.10;1.30;;;23.10;99.90;;;;;;4855445;24;20200;-94
2023/07/05 16:38:13;;;;;;;5.40;1.20;;;23.30;99.90;;;;;;4887287;24;20219;-94
2023/07/05 16:40:16;;;;;;;2.88;1.20;;;23.40;99.90;;;;;;4906296;24;20253;-94
2023/07/05 16:42:17;;;;;;;5.78;1.27;;;23.10;99.90;;;;;;5014938;23;20155;-94
2023/07/05 16:44:22;;;;;;;3.60;1.23;;;23.00;99.90;;;;;;4999300;23;20156;-94
2023/07/05 16:46:23;;;;;;;5.75;1.20;;;23.00;99.90;;;;;;5023392;23;20178;-93
2023/07/05 16:48:24;;;;;;;5.38;1.23;;;22.90;99.90;;;;;;5023484;23;20199;-90
2023/07/05 16:50:30;;;;;;;8.45;1.20;;;23.00;99.90;;;;;;5024054;23;20167;-95
2023/07/05 16:52:31;;;;;;;4.13;1.35;;;23.10;99.90;;;;;;5000608;23;20169;-95
2023/07/05 16:54:32;;;;;;;6.72;1.00;;;23.20;99.90;;;;;;5041003;23;20158;-93
2023/07/05 16:56:41;;;;;;;6.80;1.10;;;23.10;99.90;;;;;;5095031;23;20188;-94
2023/07/05 16:58:42;;;;;;;4.57;1.20;;;23.20;99.90;;;;;;5095293;23;20168;-95
2023/07/05 17:01:06;;;;;;;8.23;1.60;;;23.00;99.90;;;;;;5071890;23;20157;-94
2023/07/05 17:03:23;;;;;;;5.68;1.45;;;22.90;99.90;;;;;;5072052;23;20209;-96
2023/07/05 17:05:24;;;;;;;4.60;0.88;;;23.00;99.90;;;;;;5096361;23;20163;-89
2023/07/05 17:07:25;;;;;;;10.88;1.20;;;22.80;99.90;;;;;;5070673;23;20161;-94
2023/07/05 17:09:26;;;;;;;5.43;1.20;;;22.80;99.90;;;;;;5096318;23;20156;-92